createdAt,value
2022-07-25T00:02:21.096Z,83.74
2022-07-25T00:04:48.164Z,84.15
2022-07-25T00:07:15.103Z,84.63
2022-07-25T00:09:41.761Z,84.89
2022-07-25T00:12:08.668Z,84.84
2022-07-25T00:14:38.015Z,85.13
2022-07-25T00:17:04.690Z,85.59
2022-07-25T00:19:31.493Z,85.16
2022-07-25T00:21:58.686Z,85.91
2022-07-25T00:24:25.385Z,85.94
2022-07-25T00:26:52.136Z,85.74
2022-07-25T00:29:18.838Z,85.60
2022-07-25T00:31:45.642Z,86.00
2022-07-25T00:34:12.432Z,86.17
2022-07-25T00:36:39.191Z,86.65
2022-07-25T00:39:06.096Z,86.62
2022-07-25T00:41:32.778Z,85.37
2022-07-25T00:43:59.551Z,86.48
2022-07-25T00:46:26.247Z,86.68
2022-07-25T00:48:53.804Z,86.05
2022-07-25T00:51:20.562Z,86.52
2022-07-25T00:53:47.542Z,86.33
2022-07-25T00:56:15.713Z,86.47
2022-07-25T00:58:43.213Z,87.20
2022-07-25T01:01:09.999Z,86.75
2022-07-25T01:03:36.837Z,86.21
2022-07-25T01:06:03.798Z,86.54
2022-07-25T01:08:32.454Z,86.97
2022-07-25T01:10:59.802Z,87.55
2022-07-25T01:13:26.480Z,88.06
2022-07-25T01:15:53.331Z,88.58
2022-07-25T01:18:20.176Z,89.06
2022-07-25T01:20:48.305Z,89.94
2022-07-25T01:23:15.286Z,90.04
2022-07-25T01:25:42.197Z,90.19
2022-07-25T01:28:08.985Z,90.45
2022-07-25T01:30:35.939Z,90.12
2022-07-25T01:33:06.979Z,89.68
2022-07-25T01:35:34.146Z,89.75
2022-07-25T01:38:00.809Z,89.93
2022-07-25T01:40:27.706Z,90.02
2022-07-25T01:42:54.362Z,90.20
2022-07-25T01:45:21.066Z,89.24
2022-07-25T01:47:47.772Z,89.35
2022-07-25T01:50:14.609Z,89.76
2022-07-25T01:52:41.374Z,89.94
2022-07-25T01:55:08.557Z,90.47
2022-07-25T01:57:36.248Z,90.77
2022-07-25T02:00:06.557Z,90.92
2022-07-25T02:02:38.851Z,90.36
2022-07-25T02:05:06.251Z,90.26
2022-07-25T02:07:33.056Z,89.78
2022-07-25T02:09:59.830Z,89.41
2022-07-25T02:12:27.013Z,89.84
2022-07-25T02:14:53.692Z,89.77
2022-07-25T02:17:21.742Z,90.39
2022-07-25T02:19:49.144Z,90.81
2022-07-25T02:22:16.329Z,90.94
2022-07-25T02:24:43.664Z,91.39
2022-07-25T02:27:10.323Z,91.01
2022-07-25T02:29:37.050Z,90.96
2022-07-25T02:32:03.999Z,90.66
2022-07-25T02:34:30.646Z,91.27
2022-07-25T02:36:57.364Z,92.03
2022-07-25T02:39:25.365Z,92.55
2022-07-25T02:41:52.175Z,92.29
2022-07-25T02:44:18.959Z,92.06
2022-07-25T02:46:45.691Z,91.72
2022-07-25T02:49:13.757Z,91.49
2022-07-25T02:51:40.518Z,91.54
2022-07-25T02:54:07.168Z,91.80
2022-07-25T02:56:33.899Z,91.61
2022-07-25T02:59:00.746Z,91.50
2022-07-25T03:01:27.538Z,91.54
2022-07-25T03:03:54.313Z,92.33
2022-07-25T03:06:21.106Z,92.72
2022-07-25T03:08:48.059Z,92.72
2022-07-25T03:11:14.714Z,92.54
2022-07-25T03:13:41.417Z,91.91
2022-07-25T03:16:08.487Z,92.03
2022-07-25T03:18:35.264Z,92.66
2022-07-25T03:21:02.188Z,92.96
2022-07-25T03:23:29.922Z,92.97
2022-07-25T03:25:57.262Z,92.86
2022-07-25T03:28:24.838Z,93.35
2022-07-25T03:30:52.999Z,93.99
2022-07-25T03:33:20.043Z,94.28
2022-07-25T03:35:46.907Z,93.95
2022-07-25T03:38:13.687Z,94.00
2022-07-25T03:40:40.646Z,93.89
2022-07-25T03:43:07.318Z,94.23
2022-07-25T03:45:34.111Z,94.58
2022-07-25T03:48:00.882Z,94.29
2022-07-25T03:50:27.841Z,93.78
2022-07-25T03:52:54.486Z,93.72
2022-07-25T03:55:21.276Z,93.50
2022-07-25T03:57:48.024Z,93.14
2022-07-25T04:00:14.852Z,92.48
2022-07-25T04:02:41.688Z,92.89
2022-07-25T04:05:09.348Z,92.45
2022-07-25T04:07:36.849Z,92.34
2022-07-25T04:10:06.719Z,92.43
2022-07-25T04:12:34.169Z,92.68
2022-07-25T04:15:01.538Z,92.41
2022-07-25T04:17:28.316Z,92.03
2022-07-25T04:19:55.121Z,91.98
2022-07-25T04:22:22.309Z,91.46
2022-07-25T04:24:49.074Z,90.90
2022-07-25T04:27:15.753Z,90.47
2022-07-25T04:29:42.575Z,89.99
2022-07-25T04:32:09.323Z,90.03
2022-07-25T04:34:36.232Z,89.72
2022-07-25T04:37:03.020Z,89.84
2022-07-25T04:39:29.692Z,90.00
2022-07-25T04:41:56.468Z,90.06
2022-07-25T04:44:23.248Z,89.58
2022-07-25T04:46:49.969Z,89.69
2022-07-25T04:49:16.686Z,89.29
2022-07-25T04:51:43.567Z,88.74
2022-07-25T04:54:10.525Z,88.02
2022-07-25T04:56:37.277Z,87.87
2022-07-25T04:59:06.332Z,87.60
2022-07-25T05:01:34.447Z,86.81
2022-07-25T05:04:01.340Z,86.18
2022-07-25T05:06:28.072Z,86.12
2022-07-25T05:08:55.516Z,85.04
2022-07-25T05:11:22.498Z,84.51
2022-07-25T05:13:49.195Z,84.15
2022-07-25T05:16:16.003Z,84.19
2022-07-25T05:18:42.819Z,83.95
2022-07-25T05:21:12.854Z,82.60
2022-07-25T05:23:39.768Z,82.22
2022-07-25T05:26:06.551Z,81.89
2022-07-25T05:28:33.292Z,80.99
2022-07-25T05:31:00.009Z,80.71
2022-07-25T05:33:26.860Z,80.25
2022-07-25T05:35:53.859Z,79.23
2022-07-25T05:38:21.062Z,77.79
2022-07-25T05:40:48.056Z,77.23
2022-07-25T05:43:14.830Z,76.39
2022-07-25T05:45:41.566Z,75.66
2022-07-25T05:48:08.216Z,75.20
2022-07-25T05:50:37.339Z,75.18
2022-07-25T05:53:04.081Z,74.27
2022-07-25T05:55:30.832Z,72.60
2022-07-25T05:57:57.855Z,71.33
2022-07-25T06:00:24.954Z,70.92
2022-07-25T06:02:51.887Z,71.81
2022-07-25T06:05:18.736Z,72.72
2022-07-25T06:07:45.392Z,70.09
2022-07-25T06:10:12.064Z,66.95
2022-07-25T06:12:38.847Z,67.72
2022-07-25T06:15:07.511Z,67.45
2022-07-25T06:17:39.271Z,66.70
2022-07-25T06:20:06.395Z,64.51
2022-07-25T06:22:33.206Z,63.40
2022-07-25T06:25:02.212Z,64.09
2022-07-25T06:27:29.475Z,62.70
2022-07-25T06:29:56.505Z,61.69
2022-07-25T06:32:23.236Z,60.20
2022-07-25T06:34:50.066Z,58.99
2022-07-25T06:37:16.803Z,59.06
2022-07-25T06:39:45.850Z,59.02
2022-07-25T06:42:12.911Z,56.03
2022-07-25T06:44:39.695Z,54.80
2022-07-25T06:47:10.562Z,55.16
2022-07-25T06:49:37.437Z,55.71
2022-07-25T06:52:04.858Z,53.42
2022-07-25T06:54:31.621Z,55.67
2022-07-25T06:56:58.524Z,53.21
2022-07-25T06:59:25.405Z,53.34
2022-07-25T07:01:52.117Z,52.28
2022-07-25T07:04:18.935Z,52.88
2022-07-25T07:06:45.610Z,51.38
2022-07-25T07:09:12.499Z,55.11
2022-07-25T07:11:39.355Z,49.80
2022-07-25T07:14:06.488Z,48.03
2022-07-25T07:16:33.624Z,47.10
2022-07-25T07:19:00.336Z,43.29
2022-07-25T07:21:27.013Z,41.65
2022-07-25T07:23:53.917Z,40.79
2022-07-25T07:26:21.585Z,39.23
2022-07-25T07:28:48.247Z,39.23
2022-07-25T07:31:18.320Z,35.57
2022-07-25T07:33:45.796Z,35.39
2022-07-25T07:36:12.666Z,36.06
2022-07-25T07:38:40.085Z,34.50
2022-07-25T07:41:06.826Z,33.10
2022-07-25T07:43:33.547Z,32.18
2022-07-25T07:46:01.533Z,32.72
2022-07-25T07:48:32.553Z,32.88
2022-07-25T07:51:01.506Z,30.98
2022-07-25T07:53:47.174Z,31.09
2022-07-25T07:56:15.195Z,29.49
2022-07-25T07:58:42.087Z,29.17
2022-07-25T08:01:08.914Z,30.64
2022-07-25T08:03:36.370Z,27.34
2022-07-25T08:06:04.104Z,28.34
2022-07-25T08:08:31.768Z,27.15
2022-07-25T08:10:59.768Z,27.19
2022-07-25T08:13:31.528Z,28.22
2022-07-25T08:16:03.319Z,28.04
2022-07-25T08:18:35.477Z,27.40
2022-07-25T08:21:06.366Z,27.00
2022-07-25T08:23:39.070Z,26.36
2022-07-25T08:26:07.530Z,26.17
2022-07-25T08:28:34.231Z,25.64
2022-07-25T08:31:01.063Z,26.77
2022-07-25T08:33:28.401Z,24.77
2022-07-25T08:35:56.269Z,25.66
2022-07-25T08:38:24.789Z,25.33
2022-07-25T08:40:53.089Z,23.67
2022-07-25T08:43:19.973Z,23.93
2022-07-25T08:45:52.633Z,24.71
2022-07-25T08:48:23.436Z,23.41
2022-07-25T08:50:53.869Z,22.58
2022-07-25T08:53:37.145Z,22.90
2022-07-25T08:56:11.159Z,22.84
2022-07-25T08:58:40.132Z,22.78
2022-07-25T09:01:07.986Z,22.15
2022-07-25T09:03:36.261Z,23.45
2022-07-25T09:06:16.971Z,22.56
2022-07-25T09:08:58.043Z,21.90
2022-07-25T09:11:33.940Z,22.47
2022-07-25T09:14:05.237Z,22.99
2022-07-25T09:16:34.448Z,22.88
2022-07-25T09:19:27.339Z,21.93
2022-07-25T09:22:06.315Z,21.09
2022-07-25T09:24:34.805Z,21.67
2022-07-25T09:27:12.011Z,22.67
2022-07-25T09:29:40.460Z,21.52
2022-07-25T09:32:22.724Z,23.84
2022-07-25T09:34:50.493Z,22.85
2022-07-25T09:37:25.342Z,22.84
2022-07-25T09:39:52.149Z,20.45
2022-07-25T09:42:32.064Z,21.61
2022-07-25T09:45:04.132Z,20.70
2022-07-25T09:47:32.290Z,20.88
2022-07-25T09:49:59.844Z,21.02
2022-07-25T09:52:26.558Z,21.49
2022-07-25T09:54:54.951Z,20.80
2022-07-25T09:57:24.150Z,20.78
2022-07-25T09:59:50.893Z,19.93
2022-07-25T10:02:23.300Z,19.86
2022-07-25T10:05:13.934Z,18.96
2022-07-25T10:07:45.227Z,19.27
2022-07-25T10:10:23.705Z,20.35
2022-07-25T10:13:11.202Z,20.37
2022-07-25T10:15:53.101Z,19.75
2022-07-25T10:18:25.999Z,20.44
2022-07-25T10:20:56.105Z,19.79
2022-07-25T10:23:25.859Z,19.66
2022-07-25T10:26:03.353Z,18.36
2022-07-25T10:28:44.557Z,17.95
2022-07-25T10:31:24.826Z,19.02
2022-07-25T10:33:56.440Z,18.50
2022-07-25T10:36:24.825Z,19.53
2022-07-25T10:38:56.116Z,19.06
2022-07-25T10:41:26.003Z,17.79
2022-07-25T10:43:57.464Z,17.72
2022-07-25T10:46:27.517Z,17.63
2022-07-25T10:49:00.366Z,17.96
2022-07-25T10:51:31.093Z,18.38
2022-07-25T10:53:58.073Z,18.49
2022-07-25T10:56:28.080Z,16.53
2022-07-25T10:58:55.690Z,17.96
2022-07-25T11:01:28.320Z,17.40
2022-07-25T11:03:58.013Z,18.25
2022-07-25T11:06:39.571Z,17.94
2022-07-25T11:09:26.499Z,17.43
2022-07-25T11:11:59.026Z,16.78
2022-07-25T11:14:31.269Z,16.84
2022-07-25T11:16:58.698Z,17.14
2022-07-25T11:19:29.358Z,18.10
2022-07-25T11:22:00.427Z,17.52
2022-07-25T11:24:45.349Z,16.36
2022-07-25T11:27:23.792Z,17.87
2022-07-25T11:29:50.835Z,16.55
2022-07-25T11:32:18.735Z,17.21
2022-07-25T11:34:54.237Z,18.07
2022-07-25T11:37:21.320Z,17.34
2022-07-25T11:39:48.718Z,18.45
2022-07-25T11:42:18.151Z,16.92
2022-07-25T11:44:52.821Z,16.60
2022-07-25T11:47:25.172Z,16.08
2022-07-25T11:49:53.167Z,16.71
2022-07-25T11:52:27.676Z,16.57
2022-07-25T11:55:04.452Z,16.22
2022-07-25T11:57:34.097Z,16.56
2022-07-25T12:00:02.853Z,18.52
2022-07-25T12:02:36.989Z,16.59
2022-07-25T12:05:09.400Z,15.17
2022-07-25T12:07:36.042Z,15.67
2022-07-25T12:10:02.789Z,15.34
2022-07-25T12:12:29.516Z,15.34
2022-07-25T12:14:56.256Z,17.44
2022-07-25T12:17:22.975Z,17.97
2022-07-25T12:19:49.667Z,16.40
2022-07-25T12:22:16.315Z,15.99
2022-07-25T12:24:43.171Z,18.40
2022-07-25T12:27:10.428Z,15.93
2022-07-25T12:29:37.084Z,17.17
2022-07-25T12:32:03.964Z,15.78
2022-07-25T12:34:30.648Z,17.64
2022-07-25T12:36:57.376Z,18.24
2022-07-25T12:39:24.639Z,17.21
2022-07-25T12:41:51.476Z,16.15
2022-07-25T12:44:18.132Z,16.72
2022-07-25T12:46:49.447Z,16.05
2022-07-25T12:49:17.062Z,16.69
2022-07-25T12:51:44.021Z,16.13
2022-07-25T12:54:10.723Z,17.10
2022-07-25T12:56:38.100Z,17.01
2022-07-25T12:59:05.068Z,16.53
2022-07-25T13:01:32.017Z,16.71
2022-07-25T13:03:58.817Z,17.33
2022-07-25T13:06:25.542Z,15.73
2022-07-25T13:08:52.203Z,16.45
2022-07-25T13:11:18.999Z,15.64
2022-07-25T13:13:45.679Z,15.93
2022-07-25T13:16:12.517Z,16.77
2022-07-25T13:18:39.256Z,18.61
2022-07-25T13:21:06.140Z,16.93
2022-07-25T13:23:32.935Z,17.77
2022-07-25T13:26:00.671Z,17.61
2022-07-25T13:28:27.612Z,16.51
2022-07-25T13:30:54.602Z,17.04
2022-07-25T13:33:21.572Z,16.30
2022-07-25T13:35:48.391Z,17.49
2022-07-25T13:38:15.424Z,16.83
2022-07-25T13:40:42.278Z,17.52
2022-07-25T13:43:09.972Z,18.09
2022-07-25T13:45:36.911Z,17.48
2022-07-25T13:48:28.336Z,15.92
2022-07-25T13:50:52.009Z,17.41
2022-07-25T13:53:19.356Z,19.03
2022-07-25T13:55:46.017Z,18.92
2022-07-25T13:58:12.734Z,19.78
2022-07-25T14:00:39.900Z,19.54
2022-07-25T14:03:06.663Z,20.47
2022-07-25T14:05:33.764Z,21.59
2022-07-25T14:08:00.844Z,21.22
2022-07-25T14:10:27.765Z,23.28
2022-07-25T14:12:54.445Z,22.79
2022-07-25T14:15:21.329Z,24.00
2022-07-25T14:17:48.000Z,25.39
2022-07-25T14:20:14.845Z,27.88
2022-07-25T14:22:42.238Z,30.07
2022-07-25T14:25:09.623Z,30.67
2022-07-25T14:27:37.572Z,29.29
2022-07-25T14:30:06.081Z,30.81
2022-07-25T14:32:32.960Z,30.80
2022-07-25T14:35:01.891Z,32.74
2022-07-25T14:37:31.292Z,32.77
2022-07-25T14:40:02.105Z,33.74
2022-07-25T14:42:29.670Z,31.64
2022-07-25T14:44:56.345Z,32.91
2022-07-25T14:47:23.135Z,33.39
2022-07-25T14:49:53.454Z,33.41
2022-07-25T14:52:20.264Z,35.57
2022-07-25T14:54:46.932Z,34.48
2022-07-25T14:57:13.603Z,33.64
2022-07-25T14:59:40.337Z,35.18
2022-07-25T15:02:07.412Z,33.11
2022-07-25T15:04:34.296Z,33.90
2022-07-25T15:07:01.267Z,34.62
2022-07-25T15:09:28.448Z,33.75
2022-07-25T15:11:55.304Z,36.62
2022-07-25T15:14:22.032Z,36.96
2022-07-25T15:16:48.994Z,35.05
2022-07-25T15:19:17.333Z,34.15
2022-07-25T15:21:45.404Z,33.85
2022-07-25T15:24:13.675Z,34.18
2022-07-25T15:26:40.677Z,38.38
2022-07-25T15:29:10.160Z,36.57
2022-07-25T15:31:39.432Z,37.58
2022-07-25T15:34:06.399Z,36.63
2022-07-25T15:36:33.242Z,36.19
2022-07-25T15:38:59.907Z,36.25
2022-07-25T15:41:26.781Z,36.28
2022-07-25T15:43:53.635Z,38.28
2022-07-25T15:46:20.571Z,37.90
2022-07-25T15:48:49.099Z,38.70
2022-07-25T15:51:19.276Z,38.68
2022-07-25T15:53:45.999Z,40.94
2022-07-25T15:56:16.534Z,39.31
2022-07-25T15:58:44.165Z,41.47
2022-07-25T16:01:11.264Z,37.96
2022-07-25T16:03:38.353Z,38.69
2022-07-25T16:06:05.255Z,41.36
2022-07-25T16:08:32.148Z,39.63
2022-07-25T16:10:59.822Z,37.62
2022-07-25T16:13:26.783Z,40.03
2022-07-25T16:15:53.646Z,38.64
2022-07-25T16:18:20.431Z,42.89
2022-07-25T16:20:47.208Z,43.00
2022-07-25T16:23:13.971Z,41.74
2022-07-25T16:25:40.688Z,40.35
2022-07-25T16:28:07.447Z,40.58
2022-07-25T16:30:34.123Z,40.60
2022-07-25T16:33:00.773Z,41.97
2022-07-25T16:35:27.548Z,42.20
2022-07-25T16:37:54.250Z,43.45
2022-07-25T16:40:21.148Z,41.22
2022-07-25T16:42:49.666Z,42.44
2022-07-25T16:45:16.341Z,41.51
2022-07-25T16:47:44.041Z,41.72
2022-07-25T16:50:10.866Z,41.59
2022-07-25T16:52:37.525Z,42.73
2022-07-25T16:55:04.723Z,43.22
2022-07-25T16:57:32.277Z,44.15
2022-07-25T17:00:00.751Z,44.85
2022-07-25T17:02:29.751Z,45.58
2022-07-25T17:04:57.298Z,44.24
2022-07-25T17:07:25.473Z,43.33
2022-07-25T17:09:52.439Z,44.38
2022-07-25T17:12:19.416Z,45.08
2022-07-25T17:14:46.358Z,43.60
2022-07-25T17:17:13.251Z,44.54
2022-07-25T17:19:40.234Z,46.14
2022-07-25T17:22:08.152Z,46.00
2022-07-25T17:24:35.688Z,47.52
2022-07-25T17:27:02.791Z,45.87
2022-07-25T17:29:29.755Z,46.37
2022-07-25T17:31:56.564Z,47.78
2022-07-25T17:34:24.399Z,47.47
2022-07-25T17:36:51.175Z,47.42
2022-07-25T17:39:17.875Z,47.59
2022-07-25T17:41:44.555Z,47.72
2022-07-25T17:44:12.296Z,47.65
2022-07-25T17:46:39.138Z,47.92
2022-07-25T17:49:05.915Z,47.90
2022-07-25T17:51:32.596Z,48.90
2022-07-25T17:53:59.251Z,50.34
2022-07-25T17:56:25.988Z,51.64
2022-07-25T17:58:52.731Z,52.77
2022-07-25T18:01:19.506Z,53.42
2022-07-25T18:03:47.672Z,53.73
2022-07-25T18:06:14.848Z,54.17
2022-07-25T18:08:41.513Z,54.48
2022-07-25T18:11:08.399Z,55.96
2022-07-25T18:13:35.376Z,57.00
2022-07-25T18:16:02.437Z,58.19
2022-07-25T18:18:29.537Z,58.42
2022-07-25T18:20:56.199Z,59.46
2022-07-25T18:23:24.236Z,60.03
2022-07-25T18:25:52.200Z,59.32
2022-07-25T18:28:19.297Z,59.71
2022-07-25T18:30:45.953Z,59.44
2022-07-25T18:33:12.715Z,60.60
2022-07-25T18:35:39.452Z,60.72
2022-07-25T18:38:06.243Z,60.63
2022-07-25T18:40:32.927Z,60.93
2022-07-25T18:42:59.616Z,61.12
2022-07-25T18:45:29.852Z,60.63
2022-07-25T18:47:57.471Z,61.22
2022-07-25T18:50:24.319Z,61.59
2022-07-25T18:52:51.015Z,61.82
2022-07-25T18:55:17.733Z,61.27
2022-07-25T18:57:44.521Z,61.41
2022-07-25T19:00:11.491Z,61.73
2022-07-25T19:02:38.300Z,62.21
2022-07-25T19:05:05.600Z,62.25
2022-07-25T19:07:33.399Z,62.42
2022-07-25T19:10:00.718Z,63.05
2022-07-25T19:12:27.772Z,63.73
2022-07-25T19:14:54.918Z,63.33
2022-07-25T19:17:23.597Z,63.53
2022-07-25T19:19:52.029Z,63.70
2022-07-25T19:22:19.372Z,63.81
2022-07-25T19:24:46.020Z,64.31
2022-07-25T19:27:13.272Z,63.86
2022-07-25T19:29:42.351Z,63.35
2022-07-25T19:32:09.163Z,63.94
2022-07-25T19:34:35.969Z,63.46
2022-07-25T19:37:03.345Z,63.94
2022-07-25T19:39:30.089Z,64.85
2022-07-25T19:41:56.814Z,65.10
2022-07-25T19:44:23.567Z,64.73
2022-07-25T19:46:50.324Z,64.81
2022-07-25T19:49:17.254Z,64.94
2022-07-25T19:51:44.152Z,64.56
2022-07-25T19:54:11.271Z,64.03
2022-07-25T19:56:38.327Z,63.18
2022-07-25T19:59:05.053Z,63.84
2022-07-25T20:01:35.826Z,64.56
2022-07-25T20:04:05.407Z,64.65
2022-07-25T20:06:32.538Z,63.89
2022-07-25T20:08:59.236Z,63.57
2022-07-25T20:11:26.019Z,63.17
2022-07-25T20:13:53.942Z,62.93
2022-07-25T20:16:20.697Z,62.97
2022-07-25T20:18:47.443Z,63.79
2022-07-25T20:21:18.007Z,63.47
2022-07-25T20:23:45.678Z,61.95
2022-07-25T20:26:13.450Z,61.59
2022-07-25T20:28:40.823Z,62.24
2022-07-25T20:31:07.548Z,64.26
2022-07-25T20:33:34.412Z,64.97
2022-07-25T20:36:01.423Z,64.82
2022-07-25T20:38:37.258Z,64.74
2022-07-25T20:41:05.277Z,65.52
2022-07-25T20:43:32.699Z,65.49
2022-07-25T20:45:59.454Z,65.62
2022-07-25T20:48:26.275Z,64.58
2022-07-25T20:50:53.153Z,64.01
2022-07-25T20:53:19.953Z,64.27
2022-07-25T20:55:46.703Z,64.71
2022-07-25T20:58:13.376Z,63.99
2022-07-25T21:00:40.705Z,64.37
2022-07-25T21:03:08.109Z,64.90
2022-07-25T21:05:37.654Z,65.37
2022-07-25T21:08:05.374Z,65.82
2022-07-25T21:10:32.128Z,64.82
2022-07-25T21:12:58.954Z,65.05
2022-07-25T21:15:25.696Z,65.79
2022-07-25T21:17:52.775Z,65.74
2022-07-25T21:20:19.492Z,66.21
2022-07-25T21:22:46.202Z,65.24
2022-07-25T21:25:12.933Z,65.62
2022-07-25T21:27:39.691Z,65.69
2022-07-25T21:30:07.978Z,67.54
2022-07-25T21:32:34.728Z,68.13
2022-07-25T21:35:01.508Z,68.80
2022-07-25T21:37:28.236Z,69.56
2022-07-25T21:39:54.931Z,69.60
2022-07-25T21:42:21.612Z,69.19
2022-07-25T21:44:48.408Z,68.18
2022-07-25T21:47:15.132Z,67.90
2022-07-25T21:50:00.252Z,67.28
2022-07-25T21:52:34.877Z,68.11
2022-07-25T21:55:03.920Z,65.38
2022-07-25T21:57:31.543Z,65.98
2022-07-25T21:59:58.280Z,67.55
2022-07-25T22:02:25.051Z,67.07
2022-07-25T22:04:51.852Z,67.33
2022-07-25T22:07:18.624Z,67.64
2022-07-25T22:09:45.663Z,67.79
2022-07-25T22:12:12.390Z,67.31
2022-07-25T22:14:39.161Z,67.96
2022-07-25T22:17:06.103Z,66.95
2022-07-25T22:19:33.301Z,67.18
2022-07-25T22:22:00.297Z,66.74
2022-07-25T22:24:27.256Z,66.84
2022-07-25T22:26:54.025Z,67.36
2022-07-25T22:29:20.695Z,68.22
2022-07-25T22:31:47.724Z,67.90
2022-07-25T22:34:14.442Z,67.88
2022-07-25T22:36:41.169Z,67.64
2022-07-25T22:39:08.421Z,67.78
2022-07-25T22:41:35.558Z,67.62
2022-07-25T22:44:02.507Z,67.18
2022-07-25T22:46:30.173Z,66.91
2022-07-25T22:48:58.642Z,67.45
2022-07-25T22:51:25.514Z,67.92
2022-07-25T22:53:52.676Z,68.44
2022-07-25T22:56:19.683Z,69.05
2022-07-25T22:58:49.019Z,69.28
2022-07-25T23:01:17.526Z,68.94
2022-07-25T23:03:44.613Z,69.01
2022-07-25T23:06:12.137Z,69.59
2022-07-25T23:08:39.011Z,70.29
2022-07-25T23:11:06.272Z,70.51
2022-07-25T23:13:34.793Z,70.37
2022-07-25T23:16:03.212Z,70.82
2022-07-25T23:18:30.728Z,71.08
2022-07-25T23:20:57.621Z,71.71
2022-07-25T23:23:24.768Z,72.06
2022-07-25T23:25:51.999Z,72.41
2022-07-25T23:28:18.755Z,71.95
2022-07-25T23:30:45.527Z,71.67
2022-07-25T23:33:12.260Z,69.96
2022-07-25T23:35:38.980Z,71.20
2022-07-25T23:38:05.717Z,71.40
2022-07-25T23:40:32.489Z,69.34
2022-07-25T23:42:59.322Z,63.92
2022-07-25T23:45:28.082Z,61.07
2022-07-25T23:47:56.366Z,60.26
2022-07-25T23:50:24.178Z,56.72
2022-07-25T23:52:51.111Z,57.59
2022-07-25T23:55:17.838Z,55.35
2022-07-25T23:57:44.595Z,56.22
